SBSJSBRJ

Guest
Details From SBSJ - Sao Jose Dos Campos
To SBRJ - Santos-Dumont
Flight Number -
Tags generated
Created
Modified
Stats Distance 150 nm / 279 km
Max Altitude 11,100 ft / 3,383 m
Waypoints 3
Social Downloads 4
Likes 0
Share VATSIM

Download

Looking for another format? Having issues loading an existing format? Contact us
Advertisement - Login to hide

Notes

Basic altitude profile: - Ascent Rate: 2500ft/min - Ascent Speed: 250kts - Cruise Altitude: 35000ft - Cruise Speed: 420kts - Descent Rate: 1500ft/min - Descent Speed: 250kts Options: - Use NATs: yes - Use PACOTS: no - Use low airways: yes - Use high airways: no

Route

SBSJ GEDS SBRJ

ID Type Via Altitude Latitude Longitude Leg Dist Tot Dist Heading (true) Name
O SBSJ APT - 0 ft / 0 m -23.22817˚ -45.86274˚ - 0 nm - Sao Jose Dos Campos
GEDS APT - 11,100 ft / 3,383 m -23.05700˚ -44.17400˚ 93 nm 93 nm 84° / 83° -
O SBRJ APT - 0 ft / 0 m -22.91046˚ -43.16313˚ 56 nm 150 nm 81° / 81° Santos-Dumont

Altitude Profile

Advertisement - Login to hide

SBSJ

Details ICAO SBSJ (SJK)
Name Sao Jose Dos Campos
Region Brazil
Timezone America/Sao_Paulo (UTC-3.0)
Stats Elevation 2,120 ft / 646 m (AMSL)
Location -23.228171° -45.862738°
Runways 1
Magnetic Variation 21.760° W

METAR

SBSJ 210900Z 30001KT 9000 4000SE NSC 07/06 Q1018

Decode

TAF

TAF SBSJ 210200Z 2106/2206 12005KT CAVOK TX22/2117Z TN15/2206Z BECMG 2109/2111 29010KT BECMG 2113/2116 17010KT 9999 FEW030 BECMG 2121/2124 10010KT CAVOK BECMG 2200/2202 05005KT RMK PGY

Decode

Departure Runways

ID Width Length Bearing (true) Bearing (mag) Surface Threshold Offset Overrun Length
15 148 ft / 45 m 8,741 ft / 2,664 m 135.13° 156.89° Asphalt 0 ft / 0 m 0 ft / 0 m
33 148 ft / 45 m 8,741 ft / 2,664 m 315.12° 336.88° Asphalt 0 ft / 0 m 0 ft / 0 m

SBRJ

Details ICAO SBRJ (SDU)
Name Santos-Dumont
Region Brazil
Timezone Unknown (UTC+0.0)
Stats Elevation 11 ft / 3 m (AMSL)
Location -22.910460° -43.163133°
Runways 2
Magnetic Variation 22.825° W

METAR

SBRJ 210900Z 33005KT CAVOK 17/15 Q1016

Decode

TAF

TAF SBRJ 210200Z 2106/2118 21010KT CAVOK TN17/2108Z TX25/2117Z BECMG 2112/2114 34005KT BECMG 2116/2118 21005KT FEW025 RMK PGY

Decode

Destination Runways

ID Width Length Bearing (true) Bearing (mag) Surface Threshold Offset Overrun Length
02L 98 ft / 30 m 4,154 ft / 1,266 m 358.02° 20.84° Asphalt 0 ft / 0 m 80 ft / 24 m
02R 138 ft / 42 m 4,361 ft / 1,329 m 358.01° 20.83° Asphalt 0 ft / 0 m 80 ft / 24 m
20L 138 ft / 42 m 4,361 ft / 1,329 m 178.01° 200.83° Asphalt 0 ft / 0 m 80 ft / 24 m
20R 98 ft / 30 m 4,154 ft / 1,266 m 178.02° 200.84° Asphalt 0 ft / 0 m 95 ft / 29 m

Approach Navaids

Runway Type Ident Frequency Range Bearing (true) Bearing (mag) Slope Elevation
20L Localiser IRJ 111.10 MHz 18 nm / 33 km 172.42° 195.25° - 11 ft / 3 m (AMSL)

Popular Alternatives